sensor_id;sensor_type;location;lat;lon;timestamp;P1;durP1;ratioP1;P2;durP2;ratioP2
26435;SDS011;15351;52.408;16.826;2023-06-14T00:15:53;8.00;;;7.00;;
26435;SDS011;15351;52.408;16.826;2023-06-14T00:22:20;8.60;;;6.30;;
26435;SDS011;15351;52.408;16.826;2023-06-14T00:25:35;8.40;;;6.40;;
26435;SDS011;15351;52.408;16.826;2023-06-14T00:28:57;7.60;;;6.50;;
26435;SDS011;15351;52.408;16.826;2023-06-14T00:36:32;9.10;;;7.20;;
26435;SDS011;15351;52.408;16.826;2023-06-14T00:39:16;8.50;;;7.10;;
26435;SDS011;15351;52.408;16.826;2023-06-14T00:43:14;10.20;;;7.10;;
26435;SDS011;15351;52.408;16.826;2023-06-14T00:50:16;7.90;;;6.50;;
26435;SDS011;15351;52.408;16.826;2023-06-14T00:53:26;8.00;;;6.20;;
26435;SDS011;15351;52.408;16.826;2023-06-14T00:57:05;6.70;;;5.60;;
26435;SDS011;15351;52.408;16.826;2023-06-14T01:00:57;7.10;;;5.90;;
26435;SDS011;15351;52.408;16.826;2023-06-14T01:14:47;8.00;;;5.80;;
26435;SDS011;15351;52.408;16.826;2023-06-14T01:17:30;8.40;;;5.60;;
26435;SDS011;15351;52.408;16.826;2023-06-14T01:20:07;7.70;;;5.30;;
26435;SDS011;15351;52.408;16.826;2023-06-14T01:23:52;6.20;;;4.90;;
26435;SDS011;15351;52.408;16.826;2023-06-14T01:27:00;6.00;;;4.80;;
26435;SDS011;15351;52.408;16.826;2023-06-14T01:30:30;7.60;;;5.10;;
26435;SDS011;15351;52.408;16.826;2023-06-14T01:33:35;6.60;;;4.60;;
26435;SDS011;15351;52.408;16.826;2023-06-14T01:47:37;9.10;;;4.60;;
26435;SDS011;15351;52.408;16.826;2023-06-14T01:51:09;5.00;;;4.50;;
26435;SDS011;15351;52.408;16.826;2023-06-14T01:53:48;5.40;;;4.70;;
26435;SDS011;15351;52.408;16.826;2023-06-14T01:57:04;5.40;;;4.50;;
26435;SDS011;15351;52.408;16.826;2023-06-14T02:00:51;6.40;;;4.70;;
26435;SDS011;15351;52.408;16.826;2023-06-14T02:04:30;6.40;;;4.50;;
26435;SDS011;15351;52.408;16.826;2023-06-14T02:15:15;6.50;;;4.50;;
26435;SDS011;15351;52.408;16.826;2023-06-14T02:19:19;5.50;;;4.50;;
26435;SDS011;15351;52.408;16.826;2023-06-14T02:22:03;6.60;;;4.60;;
26435;SDS011;15351;52.408;16.826;2023-06-14T02:29:42;8.50;;;5.00;;
26435;SDS011;15351;52.408;16.826;2023-06-14T02:40:24;7.30;;;4.60;;
26435;SDS011;15351;52.408;16.826;2023-06-14T02:47:55;8.00;;;4.90;;
26435;SDS011;15351;52.408;16.826;2023-06-14T02:51:42;8.70;;;4.60;;
26435;SDS011;15351;52.408;16.826;2023-06-14T02:55:40;6.40;;;4.70;;
26435;SDS011;15351;52.408;16.826;2023-06-14T02:58:41;6.30;;;4.70;;
26435;SDS011;15351;52.408;16.826;2023-06-14T03:01:59;6.70;;;4.50;;
26435;SDS011;15351;52.408;16.826;2023-06-14T03:04:51;7.10;;;5.10;;
26435;SDS011;15351;52.408;16.826;2023-06-14T03:11:57;6.40;;;5.30;;
26435;SDS011;15351;52.408;16.826;2023-06-14T03:15:16;6.30;;;5.00;;
26435;SDS011;15351;52.408;16.826;2023-06-14T03:18:18;5.70;;;4.90;;
26435;SDS011;15351;52.408;16.826;2023-06-14T03:21:06;6.50;;;4.90;;
26435;SDS011;15351;52.408;16.826;2023-06-14T03:24:24;5.80;;;4.90;;
26435;SDS011;15351;52.408;16.826;2023-06-14T03:27:42;6.40;;;5.00;;
26435;SDS011;15351;52.408;16.826;2023-06-14T03:49:37;7.20;;;5.10;;
26435;SDS011;15351;52.408;16.826;2023-06-14T03:53:26;6.50;;;5.50;;
26435;SDS011;15351;52.408;16.826;2023-06-14T04:04:13;5.60;;;4.70;;
26435;SDS011;15351;52.408;16.826;2023-06-14T04:07:14;6.20;;;4.50;;
26435;SDS011;15351;52.408;16.826;2023-06-14T04:19:02;5.60;;;5.00;;
26435;SDS011;15351;52.408;16.826;2023-06-14T04:26:52;6.30;;;4.50;;
26435;SDS011;15351;52.408;16.826;2023-06-14T04:34:58;6.00;;;4.90;;
26435;SDS011;15351;52.408;16.826;2023-06-14T04:46:34;7.60;;;5.10;;
26435;SDS011;15351;52.408;16.826;2023-06-14T04:50:12;6.00;;;4.80;;
26435;SDS011;15351;52.408;16.826;2023-06-14T04:57:04;7.20;;;5.30;;
26435;SDS011;15351;52.408;16.826;2023-06-14T05:00:39;6.90;;;4.90;;
26435;SDS011;15351;52.408;16.826;2023-06-14T05:07:31;7.80;;;5.20;;
26435;SDS011;15351;52.408;16.826;2023-06-14T05:17:06;8.20;;;5.00;;
26435;SDS011;15351;52.408;16.826;2023-06-14T05:20:05;8.10;;;4.80;;
26435;SDS011;15351;52.408;16.826;2023-06-14T05:23:07;8.50;;;4.90;;
26435;SDS011;15351;52.408;16.826;2023-06-14T05:29:42;6.40;;;4.30;;
26435;SDS011;15351;52.408;16.826;2023-06-14T05:32:55;7.80;;;5.00;;
26435;SDS011;15351;52.408;16.826;2023-06-14T05:36:22;8.50;;;4.70;;
26435;SDS011;15351;52.408;16.826;2023-06-14T05:39:15;8.50;;;5.00;;
26435;SDS011;15351;52.408;16.826;2023-06-14T05:42:13;10.60;;;5.20;;
26435;SDS011;15351;52.408;16.826;2023-06-14T05:45:03;8.60;;;5.70;;
26435;SDS011;15351;52.408;16.826;2023-06-14T05:51:11;9.20;;;5.30;;
26435;SDS011;15351;52.408;16.826;2023-06-14T05:54:35;8.90;;;5.20;;
26435;SDS011;15351;52.408;16.826;2023-06-14T06:00:48;16.20;;;5.90;;
26435;SDS011;15351;52.408;16.826;2023-06-14T06:03:23;9.50;;;5.40;;
26435;SDS011;15351;52.408;16.826;2023-06-14T06:06:11;7.20;;;4.90;;
26435;SDS011;15351;52.408;16.826;2023-06-14T06:08:58;9.10;;;5.10;;
26435;SDS011;15351;52.408;16.826;2023-06-14T06:12:22;9.10;;;5.20;;
26435;SDS011;15351;52.408;16.826;2023-06-14T06:15:49;9.80;;;4.90;;
26435;SDS011;15351;52.408;16.826;2023-06-14T06:22:27;7.90;;;4.70;;
26435;SDS011;15351;52.408;16.826;2023-06-14T06:26:14;6.50;;;4.60;;
26435;SDS011;15351;52.408;16.826;2023-06-14T06:29:46;7.40;;;4.80;;
26435;SDS011;15351;52.408;16.826;2023-06-14T06:32:52;7.40;;;4.70;;
26435;SDS011;15351;52.408;16.826;2023-06-14T06:42:52;8.00;;;4.70;;
26435;SDS011;15351;52.408;16.826;2023-06-14T06:46:07;7.60;;;5.00;;
26435;SDS011;15351;52.408;16.826;2023-06-14T06:49:06;7.70;;;5.20;;
26435;SDS011;15351;52.408;16.826;2023-06-14T06:52:04;8.30;;;4.50;;
26435;SDS011;15351;52.408;16.826;2023-06-14T06:54:44;7.10;;;5.00;;
26435;SDS011;15351;52.408;16.826;2023-06-14T06:57:56;8.60;;;5.00;;
26435;SDS011;15351;52.408;16.826;2023-06-14T07:00:41;6.30;;;4.80;;
26435;SDS011;15351;52.408;16.826;2023-06-14T07:03:56;7.90;;;4.80;;
26435;SDS011;15351;52.408;16.826;2023-06-14T07:06:27;6.60;;;4.30;;
26435;SDS011;15351;52.408;16.826;2023-06-14T07:09:25;6.70;;;4.50;;
26435;SDS011;15351;52.408;16.826;2023-06-14T07:13:03;8.70;;;5.10;;
26435;SDS011;15351;52.408;16.826;2023-06-14T07:15:54;10.70;;;4.60;;
26435;SDS011;15351;52.408;16.826;2023-06-14T07:19:31;8.10;;;4.70;;
26435;SDS011;15351;52.408;16.826;2023-06-14T07:22:18;12.80;;;5.00;;
26435;SDS011;15351;52.408;16.826;2023-06-14T07:25:31;5.60;;;4.90;;
26435;SDS011;15351;52.408;16.826;2023-06-14T07:28:01;8.20;;;4.60;;
26435;SDS011;15351;52.408;16.826;2023-06-14T07:31:42;8.10;;;4.80;;
26435;SDS011;15351;52.408;16.826;2023-06-14T07:34:40;10.10;;;4.50;;
26435;SDS011;15351;52.408;16.826;2023-06-14T07:49:24;8.10;;;4.70;;
26435;SDS011;15351;52.408;16.826;2023-06-14T07:53:10;6.70;;;4.70;;
26435;SDS011;15351;52.408;16.826;2023-06-14T07:56:33;9.90;;;4.60;;
26435;SDS011;15351;52.408;16.826;2023-06-14T08:04:08;8.50;;;4.90;;
26435;SDS011;15351;52.408;16.826;2023-06-14T08:10:52;5.00;;;4.20;;
26435;SDS011;15351;52.408;16.826;2023-06-14T08:14:00;6.40;;;4.30;;
26435;SDS011;15351;52.408;16.826;2023-06-14T08:17:06;7.20;;;4.40;;
26435;SDS011;15351;52.408;16.826;2023-06-14T08:20:29;5.60;;;4.40;;
26435;SDS011;15351;52.408;16.826;2023-06-14T08:24:03;8.10;;;4.50;;
26435;SDS011;15351;52.408;16.826;2023-06-14T08:27:31;6.70;;;5.00;;
26435;SDS011;15351;52.408;16.826;2023-06-14T08:30:02;6.00;;;5.20;;
26435;SDS011;15351;52.408;16.826;2023-06-14T08:33:17;7.60;;;5.30;;
26435;SDS011;15351;52.408;16.826;2023-06-14T08:36:07;8.20;;;5.30;;
26435;SDS011;15351;52.408;16.826;2023-06-14T08:39:34;8.50;;;5.90;;
26435;SDS011;15351;52.408;16.826;2023-06-14T08:42:21;10.70;;;5.80;;
26435;SDS011;15351;52.408;16.826;2023-06-14T08:45:47;8.10;;;5.70;;
26435;SDS011;15351;52.408;16.826;2023-06-14T08:49:26;7.60;;;5.00;;
26435;SDS011;15351;52.408;16.826;2023-06-14T08:53:31;7.00;;;4.60;;
26435;SDS011;15351;52.408;16.826;2023-06-14T09:06:00;6.90;;;3.80;;
26435;SDS011;15351;52.408;16.826;2023-06-14T09:09:00;8.40;;;4.10;;
26435;SDS011;15351;52.408;16.826;2023-06-14T09:12:37;6.70;;;4.10;;
26435;SDS011;15351;52.408;16.826;2023-06-14T09:16:05;8.10;;;4.00;;
26435;SDS011;15351;52.408;16.826;2023-06-14T09:19:29;7.80;;;3.80;;
26435;SDS011;15351;52.408;16.826;2023-06-14T09:22:34;6.40;;;3.80;;
26435;SDS011;15351;52.408;16.826;2023-06-14T09:28:48;9.60;;;3.90;;
26435;SDS011;15351;52.408;16.826;2023-06-14T09:39:04;6.40;;;3.90;;
26435;SDS011;15351;52.408;16.826;2023-06-14T09:42:20;8.20;;;4.20;;
26435;SDS011;15351;52.408;16.826;2023-06-14T09:45:22;9.20;;;4.30;;
26435;SDS011;15351;52.408;16.826;2023-06-14T09:51:15;5.80;;;3.90;;
26435;SDS011;15351;52.408;16.826;2023-06-14T09:54:32;9.20;;;4.60;;
26435;SDS011;15351;52.408;16.826;2023-06-14T09:57:08;15.50;;;4.40;;
26435;SDS011;15351;52.408;16.826;2023-06-14T10:00:22;13.60;;;4.10;;
26435;SDS011;15351;52.408;16.826;2023-06-14T10:03:34;9.00;;;4.10;;
26435;SDS011;15351;52.408;16.826;2023-06-14T10:06:18;9.90;;;4.00;;
26435;SDS011;15351;52.408;16.826;2023-06-14T10:09:29;9.10;;;4.20;;
26435;SDS011;15351;52.408;16.826;2023-06-14T10:12:30;8.30;;;3.90;;
26435;SDS011;15351;52.408;16.826;2023-06-14T10:15:17;8.40;;;3.90;;
26435;SDS011;15351;52.408;16.826;2023-06-14T10:25:43;8.40;;;3.70;;
26435;SDS011;15351;52.408;16.826;2023-06-14T10:31:45;7.00;;;3.80;;
26435;SDS011;15351;52.408;16.826;2023-06-14T10:38:11;9.30;;;3.80;;
26435;SDS011;15351;52.408;16.826;2023-06-14T10:44:45;6.70;;;3.70;;
26435;SDS011;15351;52.408;16.826;2023-06-14T10:47:36;9.20;;;4.10;;
26435;SDS011;15351;52.408;16.826;2023-06-14T10:50:35;4.70;;;3.80;;
26435;SDS011;15351;52.408;16.826;2023-06-14T10:56:39;26.70;;;4.60;;
26435;SDS011;15351;52.408;16.826;2023-06-14T11:00:00;12.60;;;3.80;;
26435;SDS011;15351;52.408;16.826;2023-06-14T11:09:37;11.20;;;4.20;;
26435;SDS011;15351;52.408;16.826;2023-06-14T11:13:06;17.70;;;4.60;;
26435;SDS011;15351;52.408;16.826;2023-06-14T11:16:09;7.10;;;4.20;;
26435;SDS011;15351;52.408;16.826;2023-06-14T11:19:22;9.50;;;4.10;;
26435;SDS011;15351;52.408;16.826;2023-06-14T11:21:49;28.70;;;5.40;;
26435;SDS011;15351;52.408;16.826;2023-06-14T11:25:24;65.20;;;7.60;;
26435;SDS011;15351;52.408;16.826;2023-06-14T11:34:45;8.90;;;4.20;;
26435;SDS011;15351;52.408;16.826;2023-06-14T11:41:02;7.20;;;4.30;;
26435;SDS011;15351;52.408;16.826;2023-06-14T11:43:36;10.40;;;4.20;;
26435;SDS011;15351;52.408;16.826;2023-06-14T11:46:51;6.70;;;3.90;;
26435;SDS011;15351;52.408;16.826;2023-06-14T11:50:49;6.80;;;3.60;;
26435;SDS011;15351;52.408;16.826;2023-06-14T11:56:15;40.90;;;5.80;;
26435;SDS011;15351;52.408;16.826;2023-06-14T11:59:03;13.60;;;4.10;;
26435;SDS011;15351;52.408;16.826;2023-06-14T12:02:30;4.70;;;3.80;;
26435;SDS011;15351;52.408;16.826;2023-06-14T12:11:59;10.70;;;3.90;;
26435;SDS011;15351;52.408;16.826;2023-06-14T12:14:54;7.00;;;3.70;;
26435;SDS011;15351;52.408;16.826;2023-06-14T12:21:51;10.20;;;3.90;;
26435;SDS011;15351;52.408;16.826;2023-06-14T12:31:46;9.70;;;3.70;;
26435;SDS011;15351;52.408;16.826;2023-06-14T12:34:56;8.00;;;3.70;;
26435;SDS011;15351;52.408;16.826;2023-06-14T12:41:14;8.40;;;4.00;;
26435;SDS011;15351;52.408;16.826;2023-06-14T12:57:37;8.90;;;3.80;;
26435;SDS011;15351;52.408;16.826;2023-06-14T13:00:12;5.60;;;3.60;;
26435;SDS011;15351;52.408;16.826;2023-06-14T13:06:04;6.30;;;3.60;;
26435;SDS011;15351;52.408;16.826;2023-06-14T13:09:17;6.40;;;3.50;;
26435;SDS011;15351;52.408;16.826;2023-06-14T13:11:52;6.10;;;3.40;;
26435;SDS011;15351;52.408;16.826;2023-06-14T13:14:24;7.70;;;3.70;;
26435;SDS011;15351;52.408;16.826;2023-06-14T13:17:13;7.20;;;3.40;;
26435;SDS011;15351;52.408;16.826;2023-06-14T13:23:46;6.10;;;3.50;;
26435;SDS011;15351;52.408;16.826;2023-06-14T13:27:11;8.30;;;3.70;;
26435;SDS011;15351;52.408;16.826;2023-06-14T13:37:16;5.20;;;3.50;;
26435;SDS011;15351;52.408;16.826;2023-06-14T13:40:45;4.70;;;3.20;;
26435;SDS011;15351;52.408;16.826;2023-06-14T13:47:20;6.70;;;3.20;;
26435;SDS011;15351;52.408;16.826;2023-06-14T13:50:06;10.20;;;3.50;;
26435;SDS011;15351;52.408;16.826;2023-06-14T13:59:51;5.60;;;3.40;;
26435;SDS011;15351;52.408;16.826;2023-06-14T14:03:02;6.90;;;3.50;;
26435;SDS011;15351;52.408;16.826;2023-06-14T14:12:46;8.40;;;3.60;;
26435;SDS011;15351;52.408;16.826;2023-06-14T14:19:39;4.50;;;3.30;;
26435;SDS011;15351;52.408;16.826;2023-06-14T14:33:35;4.70;;;3.30;;
26435;SDS011;15351;52.408;16.826;2023-06-14T14:40:20;5.90;;;3.40;;
26435;SDS011;15351;52.408;16.826;2023-06-14T14:43:57;8.40;;;3.70;;
26435;SDS011;15351;52.408;16.826;2023-06-14T14:47:17;6.60;;;3.70;;
26435;SDS011;15351;52.408;16.826;2023-06-14T14:54:15;8.00;;;3.70;;
26435;SDS011;15351;52.408;16.826;2023-06-14T14:57:02;6.40;;;3.80;;
26435;SDS011;15351;52.408;16.826;2023-06-14T14:59:53;6.40;;;3.70;;
26435;SDS011;15351;52.408;16.826;2023-06-14T15:03:14;5.80;;;3.40;;
26435;SDS011;15351;52.408;16.826;2023-06-14T15:06:34;6.80;;;3.60;;
26435;SDS011;15351;52.408;16.826;2023-06-14T15:10:25;5.40;;;3.30;;
26435;SDS011;15351;52.408;16.826;2023-06-14T15:13:21;11.10;;;3.40;;
26435;SDS011;15351;52.408;16.826;2023-06-14T15:35:06;11.60;;;4.10;;
26435;SDS011;15351;52.408;16.826;2023-06-14T16:03:14;10.50;;;3.90;;
26435;SDS011;15351;52.408;16.826;2023-06-14T16:10:10;8.60;;;3.60;;
26435;SDS011;15351;52.408;16.826;2023-06-14T16:13:03;7.80;;;3.30;;
26435;SDS011;15351;52.408;16.826;2023-06-14T16:20:33;7.00;;;3.00;;
26435;SDS011;15351;52.408;16.826;2023-06-14T16:26:47;5.40;;;3.20;;
26435;SDS011;15351;52.408;16.826;2023-06-14T16:30:23;8.30;;;3.30;;
26435;SDS011;15351;52.408;16.826;2023-06-14T16:36:44;8.00;;;3.40;;
26435;SDS011;15351;52.408;16.826;2023-06-14T16:39:35;6.40;;;3.30;;
26435;SDS011;15351;52.408;16.826;2023-06-14T16:46:11;8.40;;;3.30;;
26435;SDS011;15351;52.408;16.826;2023-06-14T16:49:03;8.90;;;3.20;;
26435;SDS011;15351;52.408;16.826;2023-06-14T16:52:00;11.40;;;3.30;;
26435;SDS011;15351;52.408;16.826;2023-06-14T16:55:39;6.70;;;3.30;;
26435;SDS011;15351;52.408;16.826;2023-06-14T16:58:38;7.90;;;3.20;;
26435;SDS011;15351;52.408;16.826;2023-06-14T17:01:04;7.60;;;3.30;;
26435;SDS011;15351;52.408;16.826;2023-06-14T17:07:46;8.60;;;3.60;;
26435;SDS011;15351;52.408;16.826;2023-06-14T17:10:29;9.30;;;3.90;;
26435;SDS011;15351;52.408;16.826;2023-06-14T17:12:55;8.50;;;4.10;;
26435;SDS011;15351;52.408;16.826;2023-06-14T17:15:23;9.90;;;4.20;;
26435;SDS011;15351;52.408;16.826;2023-06-14T17:17:50;8.90;;;3.80;;
26435;SDS011;15351;52.408;16.826;2023-06-14T17:20:17;8.60;;;3.90;;
26435;SDS011;15351;52.408;16.826;2023-06-14T17:23:04;9.50;;;3.90;;
26435;SDS011;15351;52.408;16.826;2023-06-14T17:26:07;6.10;;;3.20;;
26435;SDS011;15351;52.408;16.826;2023-06-14T17:28:40;7.30;;;3.70;;
26435;SDS011;15351;52.408;16.826;2023-06-14T17:31:10;7.70;;;3.80;;
26435;SDS011;15351;52.408;16.826;2023-06-14T17:34:21;6.80;;;3.70;;
26435;SDS011;15351;52.408;16.826;2023-06-14T17:36:56;6.50;;;3.60;;
26435;SDS011;15351;52.408;16.826;2023-06-14T17:42:28;10.80;;;3.80;;
26435;SDS011;15351;52.408;16.826;2023-06-14T17:45:04;7.80;;;4.00;;
26435;SDS011;15351;52.408;16.826;2023-06-14T17:47:31;9.20;;;4.10;;
26435;SDS011;15351;52.408;16.826;2023-06-14T17:50:07;7.70;;;3.80;;
26435;SDS011;15351;52.408;16.826;2023-06-14T17:52:34;7.20;;;3.90;;
26435;SDS011;15351;52.408;16.826;2023-06-14T17:55:09;8.40;;;4.10;;
26435;SDS011;15351;52.408;16.826;2023-06-14T17:57:36;7.00;;;3.90;;
26435;SDS011;15351;52.408;16.826;2023-06-14T18:01:19;10.00;;;4.10;;
26435;SDS011;15351;52.408;16.826;2023-06-14T18:04:04;7.00;;;4.00;;
26435;SDS011;15351;52.408;16.826;2023-06-14T18:08:17;8.30;;;4.30;;
26435;SDS011;15351;52.408;16.826;2023-06-14T18:11:43;10.10;;;4.60;;
26435;SDS011;15351;52.408;16.826;2023-06-14T18:14:49;11.10;;;4.30;;
26435;SDS011;15351;52.408;16.826;2023-06-14T18:17:24;8.40;;;4.50;;
26435;SDS011;15351;52.408;16.826;2023-06-14T18:19:58;8.60;;;4.30;;
26435;SDS011;15351;52.408;16.826;2023-06-14T18:22:44;13.50;;;4.50;;
26435;SDS011;15351;52.408;16.826;2023-06-14T18:25:46;11.50;;;4.60;;
26435;SDS011;15351;52.408;16.826;2023-06-14T18:28:17;10.30;;;4.20;;
26435;SDS011;15351;52.408;16.826;2023-06-14T18:30:53;13.20;;;4.50;;
26435;SDS011;15351;52.408;16.826;2023-06-14T18:33:45;7.40;;;4.20;;
26435;SDS011;15351;52.408;16.826;2023-06-14T18:40:08;8.50;;;4.40;;
26435;SDS011;15351;52.408;16.826;2023-06-14T18:43:36;8.90;;;4.50;;
26435;SDS011;15351;52.408;16.826;2023-06-14T18:46:06;8.60;;;4.20;;
26435;SDS011;15351;52.408;16.826;2023-06-14T18:49:39;12.70;;;4.60;;
26435;SDS011;15351;52.408;16.826;2023-06-14T18:52:34;12.90;;;4.70;;
26435;SDS011;15351;52.408;16.826;2023-06-14T18:56:15;15.40;;;4.70;;
26435;SDS011;15351;52.408;16.826;2023-06-14T18:59:14;11.90;;;4.40;;
26435;SDS011;15351;52.408;16.826;2023-06-14T19:02:39;7.10;;;4.40;;
26435;SDS011;15351;52.408;16.826;2023-06-14T19:05:27;11.50;;;5.10;;
26435;SDS011;15351;52.408;16.826;2023-06-14T19:08:36;7.70;;;4.50;;
26435;SDS011;15351;52.408;16.826;2023-06-14T19:11:25;9.10;;;4.50;;
26435;SDS011;15351;52.408;16.826;2023-06-14T19:17:30;9.60;;;4.80;;
26435;SDS011;15351;52.408;16.826;2023-06-14T19:24:30;9.70;;;4.90;;
26435;SDS011;15351;52.408;16.826;2023-06-14T19:27:46;11.00;;;5.20;;
26435;SDS011;15351;52.408;16.826;2023-06-14T19:30:24;14.00;;;5.10;;
26435;SDS011;15351;52.408;16.826;2023-06-14T19:33:03;11.00;;;5.00;;
26435;SDS011;15351;52.408;16.826;2023-06-14T19:42:30;8.60;;;4.90;;
26435;SDS011;15351;52.408;16.826;2023-06-14T19:47:56;8.80;;;5.10;;
26435;SDS011;15351;52.408;16.826;2023-06-14T19:51:41;10.10;;;4.90;;
26435;SDS011;15351;52.408;16.826;2023-06-14T19:54:21;10.50;;;4.80;;
26435;SDS011;15351;52.408;16.826;2023-06-14T20:01:07;7.40;;;4.90;;
26435;SDS011;15351;52.408;16.826;2023-06-14T20:03:51;9.90;;;4.70;;
26435;SDS011;15351;52.408;16.826;2023-06-14T20:10:14;9.50;;;5.70;;
26435;SDS011;15351;52.408;16.826;2023-06-14T20:13:23;8.00;;;5.70;;
26435;SDS011;15351;52.408;16.826;2023-06-14T20:16:55;8.60;;;5.10;;
26435;SDS011;15351;52.408;16.826;2023-06-14T20:20:17;10.20;;;5.30;;
26435;SDS011;15351;52.408;16.826;2023-06-14T20:26:04;7.80;;;5.10;;
26435;SDS011;15351;52.408;16.826;2023-06-14T20:29:31;9.30;;;5.30;;
26435;SDS011;15351;52.408;16.826;2023-06-14T20:32:45;10.80;;;5.40;;
26435;SDS011;15351;52.408;16.826;2023-06-14T20:39:11;9.40;;;5.40;;
26435;SDS011;15351;52.408;16.826;2023-06-14T20:45:41;6.50;;;4.90;;
26435;SDS011;15351;52.408;16.826;2023-06-14T20:48:21;8.30;;;5.30;;
26435;SDS011;15351;52.408;16.826;2023-06-14T20:54:18;10.30;;;5.70;;
26435;SDS011;15351;52.408;16.826;2023-06-14T20:58:02;13.70;;;5.90;;
26435;SDS011;15351;52.408;16.826;2023-06-14T21:05:10;10.60;;;6.00;;
26435;SDS011;15351;52.408;16.826;2023-06-14T21:08:57;8.10;;;5.90;;
26435;SDS011;15351;52.408;16.826;2023-06-14T21:13:12;9.40;;;5.90;;
26435;SDS011;15351;52.408;16.826;2023-06-14T21:16:15;7.60;;;6.00;;
26435;SDS011;15351;52.408;16.826;2023-06-14T21:20:05;11.00;;;5.90;;
26435;SDS011;15351;52.408;16.826;2023-06-14T21:26:24;8.20;;;6.10;;
26435;SDS011;15351;52.408;16.826;2023-06-14T21:36:17;9.70;;;5.90;;
26435;SDS011;15351;52.408;16.826;2023-06-14T21:39:46;10.60;;;5.90;;
26435;SDS011;15351;52.408;16.826;2023-06-14T21:42:55;8.00;;;6.00;;
26435;SDS011;15351;52.408;16.826;2023-06-14T21:49:59;10.20;;;6.00;;
26435;SDS011;15351;52.408;16.826;2023-06-14T21:52:41;7.50;;;6.00;;
26435;SDS011;15351;52.408;16.826;2023-06-14T21:56:18;8.40;;;6.20;;
26435;SDS011;15351;52.408;16.826;2023-06-14T21:59:20;10.50;;;6.10;;
26435;SDS011;15351;52.408;16.826;2023-06-14T22:02:13;8.80;;;5.60;;
26435;SDS011;15351;52.408;16.826;2023-06-14T22:09:15;9.20;;;6.50;;
26435;SDS011;15351;52.408;16.826;2023-06-14T22:18:55;9.20;;;6.30;;
26435;SDS011;15351;52.408;16.826;2023-06-14T22:25:42;10.50;;;6.30;;
26435;SDS011;15351;52.408;16.826;2023-06-14T22:28:37;10.10;;;6.70;;
26435;SDS011;15351;52.408;16.826;2023-06-14T22:31:59;12.30;;;6.80;;
26435;SDS011;15351;52.408;16.826;2023-06-14T22:35:51;9.80;;;6.80;;
26435;SDS011;15351;52.408;16.826;2023-06-14T22:39:13;9.10;;;6.50;;
26435;SDS011;15351;52.408;16.826;2023-06-14T22:46:14;10.20;;;7.00;;
26435;SDS011;15351;52.408;16.826;2023-06-14T22:49:57;9.50;;;6.70;;
26435;SDS011;15351;52.408;16.826;2023-06-14T22:57:27;9.50;;;6.40;;
26435;SDS011;15351;52.408;16.826;2023-06-14T23:00:29;9.10;;;6.80;;
26435;SDS011;15351;52.408;16.826;2023-06-14T23:07:16;7.70;;;6.30;;
26435;SDS011;15351;52.408;16.826;2023-06-14T23:20:56;8.50;;;6.50;;
26435;SDS011;15351;52.408;16.826;2023-06-14T23:30:42;8.60;;;6.90;;
26435;SDS011;15351;52.408;16.826;2023-06-14T23:33:36;9.80;;;7.30;;
26435;SDS011;15351;52.408;16.826;2023-06-14T23:40:01;10.80;;;7.10;;
26435;SDS011;15351;52.408;16.826;2023-06-14T23:46:58;9.10;;;6.60;;
26435;SDS011;15351;52.408;16.826;2023-06-14T23:50:49;9.90;;;7.40;;
26435;SDS011;15351;52.408;16.826;2023-06-14T23:53:56;9.80;;;6.90;;
